createdAt,value
2022-10-30T00:01:18.024Z,79.98
2022-10-30T00:04:20.803Z,79.15
2022-10-30T00:07:23.444Z,78.70
2022-10-30T00:10:26.723Z,78.75
2022-10-30T00:13:30.742Z,79.11
2022-10-30T00:16:33.393Z,80.05
2022-10-30T00:19:36.119Z,80.04
2022-10-30T00:22:38.980Z,81.00
2022-10-30T00:25:41.793Z,80.97
2022-10-30T00:28:45.997Z,81.02
2022-10-30T00:31:48.638Z,81.35
2022-10-30T00:34:51.602Z,80.69
2022-10-30T00:37:54.400Z,80.52
2022-10-30T00:40:57.186Z,80.54
2022-10-30T00:44:01.236Z,80.02
2022-10-30T00:47:06.270Z,79.27
2022-10-30T00:50:11.212Z,79.21
2022-10-30T00:53:17.510Z,79.24
2022-10-30T00:56:21.763Z,79.30
2022-10-30T00:59:28.132Z,79.82
2022-10-30T01:02:30.994Z,80.38
2022-10-30T01:05:35.349Z,80.55
2022-10-30T01:08:38.637Z,79.90
2022-10-30T01:11:41.388Z,80.15
2022-10-30T01:14:49.146Z,80.01
2022-10-30T01:18:09.518Z,80.22
2022-10-30T01:21:33.746Z,83.53
2022-10-30T01:24:46.173Z,81.84
2022-10-30T01:27:57.179Z,80.54
2022-10-30T01:31:12.272Z,80.54
2022-10-30T01:34:19.883Z,80.52
2022-10-30T01:37:26.930Z,81.34
2022-10-30T01:40:29.792Z,82.21
2022-10-30T01:43:32.859Z,83.00
2022-10-30T01:46:54.014Z,83.07
2022-10-30T01:50:18.476Z,83.61
2022-10-30T01:53:30.972Z,83.55
2022-10-30T01:56:39.006Z,83.63
2022-10-30T01:59:45.864Z,83.07
2022-10-30T02:02:50.316Z,81.82
2022-10-30T02:05:54.618Z,81.14
2022-10-30T02:08:57.638Z,81.31
2022-10-30T02:12:01.105Z,81.70
2022-10-30T02:15:03.626Z,82.19
2022-10-30T02:18:07.732Z,81.66
2022-10-30T02:21:11.685Z,81.77
2022-10-30T02:24:14.359Z,81.79
2022-10-30T02:27:17.229Z,82.12
2022-10-30T02:30:19.793Z,82.54
2022-10-30T02:33:24.273Z,82.56
2022-10-30T02:36:28.450Z,82.38
2022-10-30T02:39:31.018Z,81.82
2022-10-30T02:42:33.740Z,81.48
2022-10-30T02:45:36.379Z,82.31
2022-10-30T02:48:39.088Z,82.85
2022-10-30T02:51:43.049Z,83.52
2022-10-30T02:54:45.724Z,84.38
2022-10-30T02:57:48.536Z,84.77
2022-10-30T03:00:51.176Z,84.48
2022-10-30T03:03:53.895Z,84.33
2022-10-30T03:06:57.811Z,84.96
2022-10-30T03:10:00.424Z,85.10
2022-10-30T03:13:03.122Z,84.77
2022-10-30T03:16:08.041Z,85.44
2022-10-30T03:19:10.748Z,85.42
2022-10-30T03:22:14.849Z,85.52
2022-10-30T03:25:23.341Z,85.19
2022-10-30T03:28:27.835Z,86.00
2022-10-30T03:31:32.160Z,86.27
2022-10-30T03:34:34.842Z,86.50
2022-10-30T03:37:38.841Z,87.19
2022-10-30T03:40:41.855Z,87.47
2022-10-30T03:43:44.605Z,86.71
2022-10-30T03:46:47.239Z,86.74
2022-10-30T03:49:49.913Z,87.18
2022-10-30T03:52:54.627Z,87.36
2022-10-30T03:55:59.058Z,87.27
2022-10-30T03:59:01.857Z,87.65
2022-10-30T04:02:04.729Z,87.29
2022-10-30T04:05:08.310Z,87.63
2022-10-30T04:08:13.502Z,87.79
2022-10-30T04:11:16.235Z,87.27
2022-10-30T04:14:18.935Z,87.53
2022-10-30T04:17:22.627Z,88.11
2022-10-30T04:20:26.842Z,87.64
2022-10-30T04:23:30.961Z,88.19
2022-10-30T04:26:33.560Z,88.18
2022-10-30T04:29:37.799Z,88.65
2022-10-30T04:32:47.198Z,88.16
2022-10-30T04:35:49.931Z,87.38
2022-10-30T04:38:54.064Z,87.39
2022-10-30T04:41:56.796Z,86.44
2022-10-30T04:45:04.967Z,86.60
2022-10-30T04:48:12.434Z,87.17
2022-10-30T04:51:16.006Z,86.36
2022-10-30T04:54:21.043Z,86.88
2022-10-30T04:57:26.697Z,87.14
2022-10-30T05:00:29.705Z,87.43
2022-10-30T05:03:32.540Z,88.33
2022-10-30T05:06:35.203Z,88.72
2022-10-30T05:09:39.356Z,88.82
2022-10-30T05:12:42.915Z,88.55
2022-10-30T05:15:45.522Z,88.52
2022-10-30T05:18:48.153Z,88.65
2022-10-30T05:21:50.924Z,88.41
2022-10-30T05:24:55.074Z,87.84
2022-10-30T05:28:01.739Z,88.27
2022-10-30T05:31:04.788Z,88.35
2022-10-30T05:34:07.653Z,88.69
2022-10-30T05:37:10.474Z,90.07
2022-10-30T05:40:14.722Z,90.24
2022-10-30T05:43:17.295Z,90.71
2022-10-30T05:46:20.096Z,90.16
2022-10-30T05:49:22.705Z,89.34
2022-10-30T05:52:25.415Z,88.78
2022-10-30T05:55:30.148Z,89.13
2022-10-30T05:58:32.823Z,88.50
2022-10-30T06:01:35.629Z,88.50
2022-10-30T06:04:38.286Z,88.82
2022-10-30T06:07:40.957Z,88.83
2022-10-30T06:10:45.272Z,89.36
2022-10-30T06:13:49.187Z,89.77
2022-10-30T06:16:51.934Z,89.62
2022-10-30T06:19:54.594Z,89.11
2022-10-30T06:22:57.804Z,89.03
2022-10-30T06:26:01.818Z,89.50
2022-10-30T06:29:04.485Z,89.91
2022-10-30T06:32:07.517Z,89.93
2022-10-30T06:35:10.677Z,89.47
2022-10-30T06:38:13.310Z,88.97
2022-10-30T06:41:17.368Z,88.53
2022-10-30T06:44:20.251Z,88.29
2022-10-30T06:47:23.176Z,88.35
2022-10-30T06:50:25.779Z,88.41
2022-10-30T06:53:28.663Z,87.70
2022-10-30T06:56:32.796Z,86.60
2022-10-30T06:59:35.415Z,85.30
2022-10-30T07:02:38.044Z,85.29
2022-10-30T07:05:40.809Z,85.14
2022-10-30T07:08:43.565Z,85.17
2022-10-30T07:11:47.582Z,84.66
2022-10-30T07:14:50.358Z,84.94
2022-10-30T07:17:55.154Z,83.77
2022-10-30T07:20:58.078Z,83.88
2022-10-30T07:24:00.747Z,83.12
2022-10-30T07:27:06.744Z,83.20
2022-10-30T07:30:10.462Z,83.04
2022-10-30T07:33:13.121Z,82.79
2022-10-30T07:36:15.955Z,82.57
2022-10-30T07:39:18.799Z,81.80
2022-10-30T07:42:22.786Z,81.67
2022-10-30T07:45:25.527Z,80.95
2022-10-30T07:48:28.210Z,80.67
2022-10-30T07:51:30.852Z,79.93
2022-10-30T07:54:33.554Z,79.86
2022-10-30T07:57:38.432Z,78.96
2022-10-30T08:00:41.120Z,78.25
2022-10-30T08:03:43.891Z,77.91
2022-10-30T08:06:46.556Z,76.75
2022-10-30T08:09:49.571Z,76.63
2022-10-30T08:12:53.687Z,75.39
2022-10-30T08:15:56.448Z,75.07
2022-10-30T08:19:02.623Z,74.79
2022-10-30T08:22:05.382Z,74.58
2022-10-30T08:25:08.549Z,74.64
2022-10-30T08:28:13.002Z,73.87
2022-10-30T08:31:15.635Z,73.42
2022-10-30T08:34:18.483Z,72.45
2022-10-30T08:37:21.126Z,72.56
2022-10-30T08:40:23.903Z,72.64
2022-10-30T08:43:27.880Z,72.14
2022-10-30T08:46:30.672Z,72.04
2022-10-30T08:49:33.327Z,71.72
2022-10-30T08:52:36.133Z,71.37
2022-10-30T08:55:38.751Z,70.84
2022-10-30T08:58:42.765Z,70.10
2022-10-30T09:01:45.627Z,69.29
2022-10-30T09:04:48.597Z,68.49
2022-10-30T09:07:51.286Z,68.60
2022-10-30T09:10:56.072Z,67.55
2022-10-30T09:13:59.989Z,67.06
2022-10-30T09:17:02.792Z,66.69
2022-10-30T09:20:06.624Z,66.58
2022-10-30T09:23:09.314Z,66.46
2022-10-30T09:26:15.549Z,65.46
2022-10-30T09:29:23.909Z,65.17
2022-10-30T09:32:26.586Z,64.71
2022-10-30T09:35:29.783Z,64.02
2022-10-30T09:38:32.430Z,63.13
2022-10-30T09:41:53.313Z,62.72
2022-10-30T09:45:27.862Z,62.64
2022-10-30T09:48:48.304Z,62.09
2022-10-30T09:52:18.130Z,61.72
2022-10-30T09:55:31.032Z,61.00
2022-10-30T09:58:39.503Z,60.85
2022-10-30T10:01:49.932Z,59.62
2022-10-30T10:04:55.124Z,58.97
2022-10-30T10:08:01.379Z,58.83
2022-10-30T10:11:07.160Z,58.68
2022-10-30T10:14:14.023Z,58.12
2022-10-30T10:17:24.523Z,57.29
2022-10-30T10:20:31.598Z,56.58
2022-10-30T10:23:37.239Z,55.97
2022-10-30T10:26:48.645Z,56.09
2022-10-30T10:29:56.691Z,55.15
2022-10-30T10:33:26.253Z,54.59
2022-10-30T10:36:36.548Z,54.91
2022-10-30T10:39:52.276Z,54.50
2022-10-30T10:43:06.125Z,53.77
2022-10-30T10:46:22.746Z,54.81
2022-10-30T10:49:39.205Z,54.63
2022-10-30T10:52:46.237Z,54.32
2022-10-30T10:55:50.948Z,54.31
2022-10-30T10:58:56.698Z,53.57
2022-10-30T11:02:03.760Z,53.48
2022-10-30T11:05:14.140Z,53.17
2022-10-30T11:08:20.710Z,52.63
2022-10-30T11:11:23.531Z,52.13
2022-10-30T11:14:29.611Z,51.70
2022-10-30T11:17:38.123Z,51.84
2022-10-30T11:20:46.168Z,51.41
2022-10-30T11:23:49.823Z,51.52
2022-10-30T11:26:52.895Z,50.95
2022-10-30T11:29:56.335Z,50.82
2022-10-30T11:33:00.355Z,50.18
2022-10-30T11:36:15.470Z,49.80
2022-10-30T11:39:19.991Z,49.31
2022-10-30T11:42:22.680Z,49.20
2022-10-30T11:45:26.891Z,49.39
2022-10-30T11:48:31.714Z,48.36
2022-10-30T11:51:38.783Z,48.18
2022-10-30T11:54:45.309Z,47.70
2022-10-30T11:57:49.624Z,47.22
2022-10-30T12:01:01.004Z,47.29
2022-10-30T12:04:15.673Z,47.36
2022-10-30T12:07:25.928Z,46.96
2022-10-30T12:10:30.204Z,46.64
2022-10-30T12:13:37.854Z,45.88
2022-10-30T12:16:46.225Z,45.91
2022-10-30T12:19:50.970Z,45.28
2022-10-30T12:22:55.838Z,44.94
2022-10-30T12:26:00.420Z,44.74
2022-10-30T12:29:06.294Z,45.17
2022-10-30T12:32:12.338Z,44.66
2022-10-30T12:35:35.889Z,43.59
2022-10-30T12:38:43.208Z,42.60
2022-10-30T12:41:50.043Z,42.23
2022-10-30T12:44:56.736Z,40.05
2022-10-30T12:48:03.169Z,36.38
2022-10-30T12:51:17.219Z,36.01
2022-10-30T12:54:31.318Z,35.43
2022-10-30T12:57:36.880Z,33.99
2022-10-30T13:00:52.089Z,32.12
2022-10-30T13:03:57.527Z,31.12
2022-10-30T13:07:05.839Z,29.64
2022-10-30T13:10:23.367Z,28.95
2022-10-30T13:13:28.953Z,28.80
2022-10-30T13:16:32.689Z,29.82
2022-10-30T13:19:41.863Z,29.00
2022-10-30T13:22:48.608Z,27.85
2022-10-30T13:26:03.332Z,27.57
2022-10-30T13:29:16.999Z,26.98
2022-10-30T13:32:40.794Z,26.51
2022-10-30T13:35:49.669Z,26.75
2022-10-30T13:38:58.021Z,26.22
2022-10-30T13:42:14.229Z,25.94
2022-10-30T13:45:29.187Z,25.13
2022-10-30T13:48:42.196Z,25.38
2022-10-30T13:51:46.950Z,24.56
2022-10-30T13:54:56.991Z,25.12
2022-10-30T13:58:05.120Z,25.68
2022-10-30T14:01:10.642Z,25.67
2022-10-30T14:04:16.813Z,25.03
2022-10-30T14:07:28.056Z,25.96
2022-10-30T14:10:44.045Z,26.27
2022-10-30T14:13:53.587Z,29.79
2022-10-30T14:17:15.282Z,34.91
2022-10-30T14:20:28.153Z,40.00
2022-10-30T14:23:34.045Z,43.65
2022-10-30T14:26:36.649Z,46.32
2022-10-30T14:29:43.671Z,48.42
2022-10-30T14:32:51.837Z,50.45
2022-10-30T14:36:20.047Z,52.23
2022-10-30T14:39:30.908Z,53.62
2022-10-30T14:42:38.781Z,54.46
2022-10-30T14:45:46.745Z,55.75
2022-10-30T14:48:55.476Z,55.73
2022-10-30T14:52:09.556Z,53.48
2022-10-30T14:55:29.512Z,52.70
2022-10-30T14:58:34.829Z,53.82
2022-10-30T15:01:44.584Z,55.09
2022-10-30T15:04:58.986Z,56.10
2022-10-30T15:08:07.621Z,57.18
2022-10-30T15:11:23.775Z,56.75
2022-10-30T15:14:48.744Z,56.30
2022-10-30T15:17:57.246Z,55.19
2022-10-30T15:21:05.776Z,58.01
2022-10-30T15:24:13.330Z,58.21
2022-10-30T15:27:18.917Z,58.70
2022-10-30T15:30:24.810Z,58.62
2022-10-30T15:33:30.359Z,58.35
2022-10-30T15:36:41.481Z,58.09
2022-10-30T15:39:44.196Z,58.50
2022-10-30T15:42:47.854Z,60.21
2022-10-30T15:45:51.737Z,60.59
2022-10-30T15:48:55.776Z,61.53
2022-10-30T15:51:58.831Z,62.24
2022-10-30T15:55:03.600Z,63.35
2022-10-30T15:58:31.844Z,64.86
2022-10-30T16:01:38.617Z,66.34
2022-10-30T16:04:42.684Z,67.69
2022-10-30T16:07:46.362Z,68.94
2022-10-30T16:10:50.091Z,69.31
2022-10-30T16:13:53.089Z,70.08
2022-10-30T16:16:55.995Z,71.20
2022-10-30T16:20:03.175Z,71.60
2022-10-30T16:23:06.605Z,72.27
2022-10-30T16:26:23.537Z,71.91
2022-10-30T16:29:28.625Z,71.57
2022-10-30T16:32:32.536Z,71.28
2022-10-30T16:35:36.887Z,69.93
2022-10-30T16:38:39.764Z,69.53
2022-10-30T16:41:42.560Z,68.89
2022-10-30T16:44:45.382Z,68.35
2022-10-30T16:47:54.005Z,67.63
2022-10-30T16:51:05.428Z,67.10
2022-10-30T16:54:14.246Z,66.70
2022-10-30T16:57:19.143Z,65.41
2022-10-30T17:00:26.121Z,64.96
2022-10-30T17:03:34.909Z,64.54
2022-10-30T17:06:41.181Z,65.46
2022-10-30T17:09:43.841Z,64.74
2022-10-30T17:12:47.284Z,64.20
2022-10-30T17:15:50.330Z,64.19
2022-10-30T17:18:53.574Z,64.02
2022-10-30T17:21:58.427Z,65.50
2022-10-30T17:25:01.199Z,64.57
2022-10-30T17:28:04.609Z,63.69
2022-10-30T17:31:27.072Z,63.21
2022-10-30T17:34:29.737Z,63.06
2022-10-30T17:37:33.720Z,63.42
2022-10-30T17:40:36.435Z,63.51
2022-10-30T17:43:49.448Z,63.75
2022-10-30T17:46:52.684Z,63.30
2022-10-30T17:49:55.320Z,62.75
2022-10-30T17:52:59.687Z,62.85
2022-10-30T17:56:04.923Z,62.95
2022-10-30T17:59:07.794Z,63.95
2022-10-30T18:02:14.319Z,63.71
2022-10-30T18:05:18.949Z,63.37
2022-10-30T18:08:23.056Z,63.54
2022-10-30T18:11:27.049Z,63.97
2022-10-30T18:14:29.841Z,64.75
2022-10-30T18:17:32.511Z,64.56
2022-10-30T18:20:35.421Z,64.98
2022-10-30T18:23:51.981Z,65.39
2022-10-30T18:26:55.895Z,65.48
2022-10-30T18:29:58.518Z,66.12
2022-10-30T18:33:03.436Z,66.03
2022-10-30T18:36:10.531Z,65.42
2022-10-30T18:39:14.800Z,65.68
2022-10-30T18:42:17.422Z,65.86
2022-10-30T18:45:23.240Z,66.03
2022-10-30T18:48:25.987Z,66.96
2022-10-30T18:51:30.079Z,68.04
2022-10-30T18:54:34.165Z,67.53
2022-10-30T18:57:36.908Z,67.69
2022-10-30T19:01:09.829Z,67.67
2022-10-30T19:04:04.315Z,68.62
2022-10-30T19:07:07.429Z,68.86
2022-10-30T19:10:11.696Z,69.67
2022-10-30T19:13:16.888Z,70.65
2022-10-30T19:16:20.822Z,71.89
2022-10-30T19:19:23.516Z,72.20
2022-10-30T19:22:26.130Z,72.10
2022-10-30T19:25:33.871Z,72.33
2022-10-30T19:28:38.405Z,72.57
2022-10-30T19:31:41.044Z,72.29
2022-10-30T19:34:45.926Z,73.42
2022-10-30T19:37:48.514Z,73.95
2022-10-30T19:40:52.658Z,74.18
2022-10-30T19:43:55.694Z,74.65
2022-10-30T19:46:58.514Z,75.79
2022-10-30T19:50:01.154Z,75.98
2022-10-30T19:53:05.078Z,76.84
2022-10-30T19:56:11.330Z,77.75
2022-10-30T19:59:15.934Z,77.73
2022-10-30T20:02:18.682Z,77.78
2022-10-30T20:05:22.290Z,78.61
2022-10-30T20:08:26.042Z,79.29
2022-10-30T20:11:31.928Z,79.79
2022-10-30T20:14:34.605Z,80.13
2022-10-30T20:17:37.416Z,80.82
2022-10-30T20:20:42.131Z,81.48
2022-10-30T20:23:46.048Z,82.54
2022-10-30T20:26:51.245Z,83.00
2022-10-30T20:29:53.952Z,83.24
2022-10-30T20:32:57.890Z,83.68
2022-10-30T20:36:00.960Z,83.75
2022-10-30T20:39:03.560Z,83.49
2022-10-30T20:42:07.659Z,84.46
2022-10-30T20:45:15.603Z,84.44
2022-10-30T20:48:18.371Z,84.63
2022-10-30T20:51:21.743Z,85.40
2022-10-30T20:54:25.264Z,84.90
2022-10-30T20:57:29.548Z,83.65
2022-10-30T21:00:32.369Z,83.48
2022-10-30T21:03:35.101Z,83.26
2022-10-30T21:06:37.872Z,83.36
2022-10-30T21:09:40.726Z,83.18
2022-10-30T21:12:45.014Z,83.73
2022-10-30T21:15:47.803Z,84.32
2022-10-30T21:18:52.155Z,84.65
2022-10-30T21:21:55.337Z,84.70
2022-10-30T21:24:58.034Z,85.22
2022-10-30T21:28:03.125Z,85.23
2022-10-30T21:31:10.267Z,84.84
2022-10-30T21:34:13.520Z,84.83
2022-10-30T21:37:16.382Z,85.39
2022-10-30T21:40:19.059Z,85.40
2022-10-30T21:43:23.189Z,85.85
2022-10-30T21:46:28.220Z,85.98
2022-10-30T21:49:30.990Z,85.71
2022-10-30T21:52:33.794Z,85.75
2022-10-30T21:55:38.731Z,85.75
2022-10-30T21:58:43.130Z,85.90
2022-10-30T22:01:46.569Z,85.68
2022-10-30T22:04:49.427Z,86.14
2022-10-30T22:07:52.596Z,86.24
2022-10-30T22:10:55.242Z,86.62
2022-10-30T22:14:00.646Z,86.76
2022-10-30T22:17:04.023Z,87.18
2022-10-30T22:20:07.840Z,87.58
2022-10-30T22:23:10.601Z,87.92
2022-10-30T22:26:15.133Z,87.84
2022-10-30T22:29:19.162Z,87.35
2022-10-30T22:32:22.966Z,87.87
2022-10-30T22:35:25.773Z,88.34
2022-10-30T22:38:28.518Z,88.54
2022-10-30T22:41:36.484Z,88.29
2022-10-30T22:44:42.910Z,88.50
2022-10-30T22:47:45.607Z,88.37
2022-10-30T22:50:48.249Z,89.26
2022-10-30T22:53:56.909Z,88.97
2022-10-30T22:56:59.523Z,89.71
2022-10-30T23:00:03.578Z,89.11
2022-10-30T23:03:06.262Z,89.48
2022-10-30T23:06:09.476Z,89.13
2022-10-30T23:09:17.137Z,89.24
2022-10-30T23:12:19.845Z,89.72
2022-10-30T23:15:24.267Z,88.88
2022-10-30T23:18:27.295Z,89.28
2022-10-30T23:21:31.388Z,89.29
2022-10-30T23:24:34.147Z,88.89
2022-10-30T23:27:36.858Z,89.29
2022-10-30T23:30:43.914Z,88.63
2022-10-30T23:33:49.039Z,88.42
2022-10-30T23:36:51.769Z,88.84
2022-10-30T23:39:54.467Z,88.98
2022-10-30T23:42:57.524Z,88.66
2022-10-30T23:46:01.946Z,88.80
2022-10-30T23:49:05.200Z,89.31
2022-10-30T23:52:07.853Z,89.17
2022-10-30T23:55:11.038Z,89.62
2022-10-30T23:58:13.808Z,89.23
